Time;durP1;ratioP1;P1;durP2;ratioP2;P2;SDS_P1;SDS_P2;PMS_P1;PMS_P2;Temp;Humidity;BMP_temperature;BMP_pressure;BME280_temperature;BME280_humidity;BME280_pressure;Samples;Min_cycle;Max_cycle;Signal;HPM_P1;HPM_P2
2022/06/12 00:01:59;;;;;;;6.25;1.15;;;17.20;65.10;;;;;;5047545;28;20021;-74
2022/06/12 00:04:25;;;;;;;4.30;1.30;;;17.20;65.00;;;;;;5045908;28;20360;-74
2022/06/12 00:06:52;;;;;;;5.32;1.23;;;17.20;65.20;;;;;;5046721;28;20032;-74
2022/06/12 00:09:19;;;;;;;3.92;1.15;;;17.10;65.40;;;;;;5047222;28;20027;-73
2022/06/12 00:11:44;;;;;;;5.85;1.08;;;17.20;65.60;;;;;;5047408;28;20068;-73
2022/06/12 00:14:11;;;;;;;6.28;1.27;;;17.10;65.80;;;;;;5046873;28;20029;-72
2022/06/12 00:16:41;;;;;;;4.38;1.10;;;17.00;65.80;;;;;;5046006;28;20017;-73
2022/06/12 00:19:07;;;;;;;6.60;1.40;;;17.10;65.90;;;;;;5047542;28;20037;-75
2022/06/12 00:21:33;;;;;;;4.60;1.00;;;17.00;65.90;;;;;;5047375;28;20106;-74
2022/06/12 00:24:04;;;;;;;8.38;1.35;;;17.00;65.70;;;;;;5050985;28;20159;-74
2022/06/12 00:26:42;;;;;;;5.70;1.30;;;16.90;65.80;;;;;;5050679;28;20025;-72
2022/06/12 00:29:12;;;;;;;4.13;1.05;;;16.90;66.10;;;;;;5050536;28;20033;-73
2022/06/12 00:31:42;;;;;;;8.63;1.90;;;16.90;66.50;;;;;;5052134;28;20021;-72
2022/06/12 00:34:08;;;;;;;5.30;1.80;;;16.80;66.60;;;;;;5033180;28;20037;-73
2022/06/12 00:36:34;;;;;;;7.00;1.40;;;16.80;66.70;;;;;;5050445;28;20044;-73
2022/06/12 00:39:00;;;;;;;4.95;1.10;;;16.80;66.70;;;;;;5050778;28;20451;-73
2022/06/12 00:41:28;;;;;;;5.53;1.20;;;16.80;66.60;;;;;;5050591;28;20128;-73
2022/06/12 00:43:54;;;;;;;8.35;1.95;;;16.70;66.80;;;;;;5049984;28;20104;-73
2022/06/12 00:46:45;;;;;;;6.00;1.73;;;16.70;66.80;;;;;;5050263;28;20104;-74
2022/06/12 00:49:17;;;;;;;6.93;1.35;;;16.70;67.20;;;;;;5050133;28;20025;-74
2022/06/12 00:51:45;;;;;;;5.53;1.27;;;16.70;67.00;;;;;;5048995;28;20036;-73
2022/06/12 00:54:11;;;;;;;8.77;1.60;;;16.60;67.10;;;;;;5050590;28;20108;-72
2022/06/12 00:56:43;;;;;;;6.45;1.42;;;16.60;67.50;;;;;;5050103;28;20187;-73
2022/06/12 00:59:12;;;;;;;4.55;1.27;;;16.60;67.90;;;;;;5050989;28;20059;-73
2022/06/12 01:01:43;;;;;;;6.22;1.60;;;16.60;68.20;;;;;;5049791;28;20017;-73
2022/06/12 01:06:59;;;;;;;5.15;1.60;;;16.50;68.50;;;;;;5036532;28;20106;-74
2022/06/12 01:09:32;;;;;;;7.38;1.95;;;16.50;68.50;;;;;;5048756;28;20029;-73
2022/06/12 01:12:01;;;;;;;6.13;1.60;;;16.40;68.40;;;;;;5048811;28;20120;-73
2022/06/12 01:14:32;;;;;;;7.32;1.75;;;16.40;68.80;;;;;;5048967;28;20150;-73
2022/06/12 01:17:00;;;;;;;6.93;1.88;;;16.40;69.10;;;;;;5048536;28;20032;-75
2022/06/12 01:19:40;;;;;;;7.55;1.90;;;16.40;69.20;;;;;;5047773;28;20075;-74
2022/06/12 01:22:44;;;;;;;6.75;1.80;;;16.30;69.40;;;;;;5039606;28;20139;-74
2022/06/12 01:25:29;;;;;;;6.18;1.75;;;16.30;69.50;;;;;;5048930;28;20132;-73
2022/06/12 01:28:33;;;;;;;5.20;1.45;;;16.20;69.90;;;;;;5048362;28;20160;-73
2022/06/12 01:31:09;;;;;;;7.45;1.95;;;16.20;70.20;;;;;;5048265;28;20053;-73
2022/06/12 01:34:03;;;;;;;8.10;1.65;;;16.20;70.20;;;;;;5046908;28;20113;-73
2022/06/12 01:36:55;;;;;;;10.18;2.47;;;16.10;70.40;;;;;;5048962;28;20056;-73
2022/06/12 01:39:25;;;;;;;8.15;1.88;;;16.10;70.70;;;;;;5048602;28;20521;-73
2022/06/12 01:41:54;;;;;;;9.35;1.88;;;16.10;71.10;;;;;;5048994;28;20104;-74
2022/06/12 01:44:41;;;;;;;8.80;2.00;;;16.10;71.40;;;;;;5049191;28;20672;-74
2022/06/12 01:47:26;;;;;;;12.18;2.58;;;16.00;71.50;;;;;;5049646;28;20025;-74
2022/06/12 01:50:10;;;;;;;10.73;2.17;;;16.00;71.70;;;;;;5046769;28;20479;-74
2022/06/12 01:52:57;;;;;;;8.73;2.00;;;16.00;72.40;;;;;;5047854;28;20024;-73
2022/06/12 01:55:59;;;;;;;10.70;2.80;;;16.00;72.40;;;;;;5047622;28;20029;-74
2022/06/12 01:58:51;;;;;;;11.05;2.47;;;15.90;72.80;;;;;;5048807;28;20090;-73
2022/06/12 02:01:21;;;;;;;8.25;2.33;;;15.90;72.90;;;;;;5048297;28;20108;-74
2022/06/12 02:04:20;;;;;;;12.43;2.53;;;15.90;73.80;;;;;;5049164;28;20559;-75
2022/06/12 02:07:20;;;;;;;5.72;1.45;;;15.90;73.70;;;;;;5028204;28;20040;-73
2022/06/12 02:10:06;;;;;;;10.10;2.85;;;15.80;73.80;;;;;;5044877;28;20136;-74
2022/06/12 02:15:35;;;;;;;11.07;2.53;;;15.80;74.00;;;;;;5048263;28;20036;-74
2022/06/12 02:18:29;;;;;;;12.95;2.75;;;15.70;74.60;;;;;;5047843;28;20071;-73
2022/06/12 02:21:11;;;;;;;9.27;2.42;;;15.70;74.80;;;;;;5036578;28;20029;-73
2022/06/12 02:24:02;;;;;;;10.82;2.63;;;15.70;74.90;;;;;;5048583;28;20081;-73
2022/06/12 02:26:34;;;;;;;13.15;2.88;;;15.70;75.00;;;;;;5047099;28;20063;-74
2022/06/12 02:29:06;;;;;;;9.05;2.88;;;15.70;75.40;;;;;;5048543;28;20503;-73
2022/06/12 02:31:37;;;;;;;11.82;3.13;;;15.60;75.30;;;;;;5048242;28;20021;-74
2022/06/12 02:34:12;;;;;;;9.95;2.40;;;15.60;75.40;;;;;;5048446;28;20033;-74
2022/06/12 02:36:41;;;;;;;7.50;2.75;;;15.60;75.40;;;;;;5046661;28;20064;-73
2022/06/12 02:39:13;;;;;;;11.68;2.53;;;15.60;75.70;;;;;;5047684;28;20045;-74
2022/06/12 02:41:57;;;;;;;13.88;2.80;;;15.60;75.70;;;;;;5043716;28;20111;-73
2022/06/12 02:44:40;;;;;;;12.50;3.10;;;15.60;75.80;;;;;;5047780;28;20021;-73
2022/06/12 02:47:12;;;;;;;10.95;2.72;;;15.60;76.00;;;;;;5046876;28;20028;-73
2022/06/12 02:49:40;;;;;;;11.40;2.80;;;15.60;75.90;;;;;;5047793;28;20121;-73
2022/06/12 02:52:20;;;;;;;10.45;2.92;;;15.60;75.80;;;;;;5048487;28;20032;-74
2022/06/12 02:54:54;;;;;;;12.98;3.35;;;15.60;76.10;;;;;;5047734;28;20030;-74
2022/06/12 02:57:35;;;;;;;10.35;2.50;;;15.50;76.20;;;;;;5049041;28;20021;-72
2022/06/12 03:00:26;;;;;;;11.05;2.95;;;15.50;76.30;;;;;;5049641;28;20463;-74
2022/06/12 03:03:11;;;;;;;9.85;2.92;;;15.50;76.70;;;;;;5054032;28;20021;-73
2022/06/12 03:05:40;;;;;;;14.88;3.42;;;15.50;76.80;;;;;;5046687;28;20028;-73
2022/06/12 03:08:16;;;;;;;10.57;2.90;;;15.50;76.90;;;;;;5047988;28;20501;-74
2022/06/12 03:10:47;;;;;;;13.10;3.40;;;15.50;77.10;;;;;;5047784;28;20104;-73
2022/06/12 03:13:13;;;;;;;9.13;3.03;;;15.50;77.20;;;;;;5047798;28;20111;-73
2022/06/12 03:15:50;;;;;;;13.77;3.10;;;15.50;77.20;;;;;;5046788;28;20025;-74
2022/06/12 03:18:26;;;;;;;7.57;2.75;;;15.50;77.10;;;;;;5047557;28;20065;-74
2022/06/12 03:20:52;;;;;;;11.52;3.25;;;15.40;77.10;;;;;;5047667;28;20545;-72
2022/06/12 03:23:55;;;;;;;9.05;2.80;;;15.40;77.30;;;;;;5046406;28;20029;-73
2022/06/12 03:26:52;;;;;;;13.55;3.63;;;15.40;77.50;;;;;;5047017;28;20084;-74
2022/06/12 03:29:23;;;;;;;11.85;3.42;;;15.40;77.60;;;;;;5047248;28;20025;-74
2022/06/12 03:32:02;;;;;;;11.20;2.97;;;15.40;77.90;;;;;;5047208;28;20042;-73
2022/06/12 03:34:31;;;;;;;10.70;3.75;;;15.40;78.00;;;;;;5045883;28;20108;-73
2022/06/12 03:37:13;;;;;;;8.68;3.25;;;15.40;78.00;;;;;;5046432;28;20106;-74
2022/06/12 03:40:04;;;;;;;8.48;3.00;;;15.40;78.10;;;;;;5047165;28;20531;-72
2022/06/12 03:42:43;;;;;;;12.10;3.35;;;15.40;78.10;;;;;;5047037;28;20115;-73
2022/06/12 03:45:14;;;;;;;11.77;3.85;;;15.40;78.20;;;;;;5047779;28;20029;-73
2022/06/12 03:47:53;;;;;;;10.80;3.70;;;15.40;78.30;;;;;;5047406;28;20067;-73
2022/06/12 03:50:41;;;;;;;10.90;3.97;;;15.40;78.30;;;;;;5048342;28;20577;-73
2022/06/12 03:53:16;;;;;;;12.00;3.90;;;15.40;78.60;;;;;;5046609;28;20029;-72
2022/06/12 03:59:15;;;;;;;12.00;3.60;;;15.30;78.80;;;;;;5051428;28;20099;-74
2022/06/12 04:01:43;;;;;;;11.75;3.83;;;15.40;78.80;;;;;;5051318;28;20055;-74
2022/06/12 04:04:10;;;;;;;11.02;3.45;;;15.40;78.90;;;;;;5050918;28;20025;-73
2022/06/12 04:06:36;;;;;;;10.30;3.55;;;15.40;79.10;;;;;;5051539;28;20364;-73
2022/06/12 04:09:12;;;;;;;11.88;4.13;;;15.40;79.10;;;;;;5044600;28;20040;-73
2022/06/12 04:11:39;;;;;;;13.38;4.22;;;15.40;79.30;;;;;;5051677;28;20026;-73
2022/06/12 04:14:09;;;;;;;12.75;4.68;;;15.30;79.50;;;;;;5051375;28;20428;-74
2022/06/12 04:16:45;;;;;;;;;;;15.40;79.50;;;;;;5031958;28;20025;-73
2022/06/12 04:19:16;;;;;;;10.00;3.88;;;15.40;79.50;;;;;;5045948;28;19917;-73
2022/06/12 04:21:51;;;;;;;13.30;4.53;;;15.40;79.50;;;;;;5031478;28;20112;-73
2022/06/12 04:24:42;;;;;;;12.40;4.22;;;15.40;79.70;;;;;;5045296;28;20075;-74
2022/06/12 04:27:26;;;;;;;15.38;4.75;;;15.40;80.00;;;;;;5030133;28;20380;-74
2022/06/12 04:30:00;;;;;;;13.88;4.85;;;15.40;80.10;;;;;;5048893;28;20091;-74
2022/06/12 04:32:28;;;;;;;16.65;4.88;;;15.50;80.10;;;;;;5051265;28;20442;-74
2022/06/12 04:34:54;;;;;;;11.68;4.05;;;15.50;80.30;;;;;;5051042;28;20077;-73
2022/06/12 04:37:25;;;;;;;17.30;4.57;;;15.50;80.20;;;;;;5050903;28;20061;-74
2022/06/12 04:39:52;;;;;;;14.85;4.35;;;15.50;80.30;;;;;;5047801;28;20497;-74
2022/06/12 04:42:20;;;;;;;15.15;4.35;;;15.60;80.30;;;;;;5049784;28;20028;-74
2022/06/12 04:44:46;;;;;;;14.93;4.57;;;15.60;80.30;;;;;;5050697;28;20028;-74
2022/06/12 04:47:18;;;;;;;17.08;4.53;;;15.60;80.20;;;;;;5050459;28;20336;-74
2022/06/12 04:49:44;;;;;;;14.05;4.88;;;15.70;80.10;;;;;;5050100;28;20630;-74
2022/06/12 04:52:13;;;;;;;20.33;4.85;;;15.80;80.00;;;;;;5050705;28;20024;-73
2022/06/12 04:54:41;;;;;;;13.05;4.10;;;15.80;80.00;;;;;;5046649;28;20033;-74
2022/06/12 04:57:09;;;;;;;11.27;4.40;;;15.90;80.00;;;;;;5050493;28;20021;-74
2022/06/12 04:59:36;;;;;;;10.85;3.63;;;15.90;80.00;;;;;;5049564;28;20075;-74
2022/06/12 05:02:02;;;;;;;13.27;4.40;;;16.00;79.90;;;;;;5050519;28;20029;-74
2022/06/12 05:04:29;;;;;;;16.60;4.30;;;16.00;80.00;;;;;;5049878;28;20054;-74
2022/06/12 05:06:56;;;;;;;14.48;4.47;;;16.10;79.90;;;;;;5039042;28;20028;-72
2022/06/12 05:09:26;;;;;;;16.73;4.82;;;16.10;79.90;;;;;;5049734;28;20444;-73
2022/06/12 05:11:53;;;;;;;11.87;4.47;;;16.10;79.90;;;;;;5049767;28;20025;-73
2022/06/12 05:14:19;;;;;;;14.40;4.28;;;16.10;79.70;;;;;;5049937;28;20024;-73
2022/06/12 05:16:53;;;;;;;12.57;4.05;;;16.20;79.90;;;;;;5047260;28;20523;-73
2022/06/12 05:19:22;;;;;;;15.15;4.93;;;16.20;79.80;;;;;;5030381;28;20521;-73
2022/06/12 05:21:48;;;;;;;16.05;4.95;;;16.30;79.70;;;;;;5044348;28;20517;-74
2022/06/12 05:24:14;;;;;;;16.38;4.80;;;16.30;79.60;;;;;;5041051;28;20022;-73
2022/06/12 05:26:42;;;;;;;16.45;5.50;;;16.40;79.80;;;;;;5049114;28;20010;-73
2022/06/12 05:29:19;;;;;;;22.40;7.28;;;16.40;79.90;;;;;;5051889;28;20098;-73
2022/06/12 05:31:46;;;;;;;16.13;5.07;;;16.50;79.80;;;;;;5049844;28;20021;-74
2022/06/12 05:34:13;;;;;;;15.85;4.88;;;16.50;80.10;;;;;;5050359;28;20053;-74
2022/06/12 05:36:39;;;;;;;13.02;4.43;;;16.60;80.00;;;;;;5049465;28;20044;-74
2022/06/12 05:39:05;;;;;;;8.95;2.83;;;16.50;80.20;;;;;;5041715;28;20041;-75
2022/06/12 05:41:30;;;;;;;15.45;4.07;;;16.60;79.70;;;;;;5042012;28;20109;-73
2022/06/12 05:43:59;;;;;;;18.65;6.28;;;16.70;79.60;;;;;;5047730;28;20021;-74
2022/06/12 05:46:25;;;;;;;21.77;5.53;;;16.70;80.00;;;;;;5041775;28;20063;-74
2022/06/12 05:48:50;;;;;;;17.67;5.65;;;16.70;80.50;;;;;;5037350;28;20025;-74
2022/06/12 05:51:18;;;;;;;21.50;5.63;;;16.90;80.40;;;;;;5041058;28;20024;-74
2022/06/12 05:53:44;;;;;;;21.80;5.70;;;16.90;80.00;;;;;;5039106;28;20033;-73
2022/06/12 05:56:16;;;;;;;23.02;5.28;;;17.10;79.90;;;;;;5039106;28;20787;-74
2022/06/12 05:58:42;;;;;;;17.33;5.78;;;17.10;80.40;;;;;;5039532;28;20087;-75
2022/06/12 06:01:10;;;;;;;16.60;5.60;;;17.20;80.60;;;;;;5040295;28;20032;-75
2022/06/12 06:03:37;;;;;;;11.65;4.75;;;17.20;80.40;;;;;;5040903;28;20021;-74
2022/06/12 06:06:08;;;;;;;14.63;4.75;;;17.30;80.00;;;;;;5039182;28;20123;-74
2022/06/12 06:08:35;;;;;;;17.17;5.60;;;17.30;80.00;;;;;;5043314;28;20024;-74
2022/06/12 06:11:00;;;;;;;17.23;4.25;;;17.40;80.40;;;;;;5040866;28;20032;-75
2022/06/12 06:13:26;;;;;;;16.40;4.82;;;17.50;80.10;;;;;;5042094;28;20025;-74
2022/06/12 06:15:52;;;;;;;24.50;6.30;;;17.60;79.60;;;;;;5038395;28;20082;-73
2022/06/12 06:18:19;;;;;;;20.92;5.20;;;17.50;80.00;;;;;;5043276;28;20040;-73
2022/06/12 06:20:47;;;;;;;19.05;5.95;;;17.60;79.90;;;;;;5039284;28;20087;-73
2022/06/12 06:23:13;;;;;;;14.50;4.45;;;17.70;80.00;;;;;;5044229;28;20119;-72
2022/06/12 06:25:40;;;;;;;26.10;6.70;;;17.80;79.20;;;;;;5045904;28;20512;-74
2022/06/12 06:28:08;;;;;;;18.50;5.03;;;18.00;79.30;;;;;;5041304;28;20025;-73
2022/06/12 06:30:35;;;;;;;10.05;2.78;;;18.10;77.90;;;;;;5049048;28;20025;-75
2022/06/12 06:33:00;;;;;;;18.92;4.88;;;18.20;75.30;;;;;;5049055;28;20025;-75
2022/06/12 06:35:26;;;;;;;17.15;5.47;;;18.30;77.00;;;;;;5048939;28;20402;-75
2022/06/12 06:37:53;;;;;;;19.00;5.38;;;18.40;77.50;;;;;;5048794;28;20029;-74
2022/06/12 06:40:21;;;;;;;14.82;4.32;;;18.50;76.70;;;;;;5047660;28;20694;-76
2022/06/12 06:42:47;;;;;;;19.67;4.78;;;18.50;76.50;;;;;;5048012;28;20380;-73
2022/06/12 06:47:58;;;;;;;19.75;6.88;;;18.60;76.80;;;;;;5043857;28;20142;-75
2022/06/12 06:50:24;;;;;;;14.00;5.25;;;18.70;76.00;;;;;;5045191;28;20029;-77
2022/06/12 06:52:50;;;;;;;17.13;5.10;;;18.70;76.10;;;;;;5044784;28;20076;-76
2022/06/12 06:55:18;;;;;;;22.45;6.60;;;18.70;76.40;;;;;;5044315;28;20736;-77
2022/06/12 06:57:46;;;;;;;14.50;5.72;;;18.80;76.10;;;;;;5041093;28;20029;-76
2022/06/12 07:00:17;;;;;;;12.05;3.75;;;18.80;76.10;;;;;;5046208;28;20691;-76
2022/06/12 07:02:42;;;;;;;24.35;5.85;;;18.90;74.90;;;;;;5041331;28;20112;-76
2022/06/12 07:05:08;;;;;;;20.00;5.53;;;19.00;75.70;;;;;;5039735;28;20032;-76
2022/06/12 07:07:34;;;;;;;24.85;5.88;;;19.10;75.00;;;;;;5041502;28;20017;-76
2022/06/12 07:10:02;;;;;;;13.48;4.90;;;19.30;74.60;;;;;;5046642;28;20122;-76
2022/06/12 07:12:28;;;;;;;19.52;5.50;;;19.30;74.70;;;;;;5047320;28;20399;-77
2022/06/12 07:14:54;;;;;;;19.77;6.75;;;19.40;75.00;;;;;;5047673;28;20024;-77
2022/06/12 07:17:19;;;;;;;13.45;5.57;;;19.50;73.90;;;;;;5048061;28;20478;-77
2022/06/12 07:19:45;;;;;;;16.38;6.47;;;19.60;74.30;;;;;;5047720;28;20052;-77
2022/06/12 07:22:11;;;;;;;21.67;5.22;;;19.60;73.80;;;;;;5047289;28;20013;-78
2022/06/12 07:24:36;;;;;;;17.70;5.85;;;19.70;73.60;;;;;;5046774;28;20020;-78
2022/06/12 07:27:03;;;;;;;15.20;5.05;;;19.80;73.20;;;;;;5043292;28;20360;-79
2022/06/12 07:29:29;;;;;;;16.95;5.20;;;20.00;73.10;;;;;;5044823;28;20029;-78
2022/06/12 07:31:54;;;;;;;9.50;2.67;;;20.10;72.80;;;;;;5047657;28;20017;-77
2022/06/12 07:34:20;;;;;;;18.10;3.95;;;20.30;69.80;;;;;;5048550;28;20029;-76
2022/06/12 07:36:49;;;;;;;15.05;3.75;;;20.50;69.10;;;;;;5048823;28;20044;-78
2022/06/12 07:39:21;;;;;;;18.52;5.50;;;20.60;68.70;;;;;;5048880;28;20087;-77
2022/06/12 07:41:49;;;;;;;22.77;4.95;;;20.50;68.50;;;;;;5051408;28;20513;-77
2022/06/12 07:44:17;;;;;;;18.05;4.60;;;20.50;69.00;;;;;;5052375;28;20024;-78
2022/06/12 07:46:43;;;;;;;20.88;4.60;;;20.40;69.50;;;;;;5052311;28;20020;-78
2022/06/12 07:49:09;;;;;;;14.88;4.18;;;20.40;68.80;;;;;;5054265;28;20021;-78
2022/06/12 07:51:35;;;;;;;15.82;3.70;;;20.60;69.00;;;;;;5053728;28;20017;-78
2022/06/12 07:54:01;;;;;;;16.33;4.47;;;20.70;68.40;;;;;;5054219;28;20080;-78
2022/06/12 07:56:27;;;;;;;14.55;4.03;;;20.80;67.80;;;;;;5044262;28;20515;-78
2022/06/12 07:58:53;;;;;;;17.85;3.78;;;20.90;66.40;;;;;;5051903;28;20176;-78
2022/06/12 08:01:22;;;;;;;16.08;4.20;;;21.00;66.80;;;;;;5049112;28;20057;-79
2022/06/12 08:03:49;;;;;;;12.82;3.90;;;21.10;66.80;;;;;;5052642;28;20025;-79
2022/06/12 08:06:15;;;;;;;20.13;4.93;;;21.20;66.90;;;;;;5052408;28;20027;-79
2022/06/12 08:08:41;;;;;;;23.33;4.70;;;21.40;66.70;;;;;;5054072;28;20368;-78
2022/06/12 08:11:07;;;;;;;19.10;4.40;;;21.50;65.70;;;;;;5052606;28;20032;-78
2022/06/12 08:13:33;;;;;;;13.52;3.83;;;21.70;65.70;;;;;;5052006;28;20435;-79
2022/06/12 08:16:00;;;;;;;17.88;4.25;;;21.90;65.50;;;;;;5069738;28;20037;-78
2022/06/12 08:18:27;;;;;;;16.60;4.40;;;22.00;63.80;;;;;;5066249;28;20472;-79
2022/06/12 08:21:00;;;;;;;12.23;4.32;;;22.10;63.30;;;;;;5054969;28;20028;-77
2022/06/12 08:23:38;;;;;;;16.10;4.25;;;22.10;63.40;;;;;;5047963;28;20047;-78
2022/06/12 08:26:08;;;;;;;18.48;3.90;;;22.10;63.00;;;;;;5039018;28;20120;-77
2022/06/12 08:28:37;;;;;;;19.70;4.75;;;22.00;62.60;;;;;;5044344;28;20037;-79
2022/06/12 08:31:06;;;;;;;17.88;4.22;;;22.00;62.80;;;;;;5044907;28;20108;-77
2022/06/12 08:33:34;;;;;;;12.63;4.00;;;22.00;63.90;;;;;;5049620;28;20028;-79
2022/06/12 08:36:00;;;;;;;16.10;4.75;;;22.00;63.20;;;;;;5063493;28;20045;-79
2022/06/12 08:38:25;;;;;;;13.95;3.53;;;22.20;63.50;;;;;;5059463;28;20029;-78
2022/06/12 08:41:09;;;;;;;12.32;3.78;;;22.40;62.20;;;;;;5058075;28;20082;-79
2022/06/12 08:43:53;;;;;;;12.48;3.42;;;22.60;60.00;;;;;;5049738;28;20017;-79
2022/06/12 08:46:30;;;;;;;12.15;3.13;;;22.60;59.70;;;;;;5047671;28;20078;-79
2022/06/12 08:49:10;;;;;;;15.10;3.58;;;22.70;59.30;;;;;;5045611;28;20013;-80
2022/06/12 08:51:47;;;;;;;;;;;22.80;59.50;;;;;;5046398;28;20037;-81
2022/06/12 08:54:26;;;;;;;15.40;3.05;;;22.90;59.60;;;;;;5047453;28;19948;-78
2022/06/12 08:56:56;;;;;;;10.77;2.90;;;22.90;57.70;;;;;;5040737;28;20136;-76
2022/06/12 08:59:25;;;;;;;;;;;22.90;58.30;;;;;;5039459;28;20025;-77
2022/06/12 09:01:50;;;;;;;12.93;2.80;;;23.00;58.10;;;;;;5039374;28;20336;-77
2022/06/12 09:04:19;;;;;;;12.68;2.92;;;23.20;58.20;;;;;;5041273;28;20026;-75
2022/06/12 09:06:48;;;;;;;8.38;2.40;;;23.00;55.80;;;;;;5039809;28;20215;-77
2022/06/12 09:09:27;;;;;;;10.45;2.80;;;23.10;56.50;;;;;;5039102;28;20017;-74
2022/06/12 09:12:07;;;;;;;9.73;3.15;;;23.20;57.40;;;;;;5039485;28;20037;-75
2022/06/12 09:14:55;;;;;;;11.40;2.58;;;23.30;56.90;;;;;;5035570;28;20024;-77
2022/06/12 09:17:34;;;;;;;13.32;3.42;;;23.60;55.50;;;;;;5041484;28;20025;-76
2022/06/12 09:20:20;;;;;;;8.80;2.75;;;23.80;54.30;;;;;;5037870;28;20036;-78
2022/06/12 09:23:18;;;;;;;9.00;2.50;;;23.80;53.90;;;;;;5043420;28;20029;-81
2022/06/12 09:25:47;;;;;;;10.38;2.55;;;24.00;55.30;;;;;;5041768;28;20020;-78
2022/06/12 09:28:39;;;;;;;11.03;2.40;;;24.20;52.10;;;;;;5039074;28;20359;-80
2022/06/12 09:31:09;;;;;;;12.95;2.90;;;24.30;50.90;;;;;;5041818;28;20271;-79
2022/06/12 09:34:03;;;;;;;12.50;2.35;;;24.10;50.10;;;;;;5034547;28;20032;-77
2022/06/12 09:36:57;;;;;;;13.38;2.63;;;24.00;51.10;;;;;;5042270;28;20059;-76
2022/06/12 09:39:39;;;;;;;11.43;2.38;;;24.00;51.10;;;;;;5038815;28;20479;-77
2022/06/12 09:42:22;;;;;;;15.38;3.00;;;24.20;52.10;;;;;;5030521;28;20055;-76
2022/06/12 09:44:57;;;;;;;8.82;2.67;;;24.30;50.10;;;;;;5040589;28;20043;-75
2022/06/12 09:47:35;;;;;;;11.93;2.38;;;24.30;50.80;;;;;;5037463;28;20025;-75
2022/06/12 09:50:11;;;;;;;9.63;2.53;;;24.30;51.90;;;;;;5040145;28;20108;-78
2022/06/12 09:52:51;;;;;;;11.48;2.67;;;24.40;51.40;;;;;;5039049;28;20102;-78
2022/06/12 09:55:48;;;;;;;7.25;2.03;;;24.50;53.00;;;;;;5055633;28;20082;-78
2022/06/12 09:58:21;;;;;;;11.52;3.15;;;24.60;50.20;;;;;;5025754;28;20128;-79
2022/06/12 10:00:53;;;;;;;11.38;2.40;;;24.50;50.10;;;;;;5038532;28;20107;-77
2022/06/12 10:03:33;;;;;;;10.70;3.05;;;24.30;50.50;;;;;;5040038;28;20028;-76
2022/06/12 10:06:01;;;;;;;11.48;2.30;;;24.20;50.20;;;;;;5039043;28;20031;-75
2022/06/12 10:08:34;;;;;;;9.93;2.47;;;24.20;52.20;;;;;;5037397;28;20032;-76
2022/06/12 10:11:10;;;;;;;11.07;2.88;;;24.30;51.10;;;;;;5037752;28;20072;-77
2022/06/12 10:13:43;;;;;;;10.07;3.33;;;24.50;51.30;;;;;;5040005;28;20021;-76
2022/06/12 10:16:13;;;;;;;7.65;2.80;;;24.70;51.00;;;;;;5037747;28;20017;-75
2022/06/12 10:18:44;;;;;;;11.13;3.10;;;24.90;52.30;;;;;;5033874;28;20039;-77
2022/06/12 10:21:15;;;;;;;13.02;3.80;;;24.90;53.80;;;;;;5038432;28;20079;-75
2022/06/12 10:23:41;;;;;;;12.40;3.38;;;24.70;50.80;;;;;;5036881;28;20032;-78
2022/06/12 10:26:26;;;;;;;11.13;2.95;;;24.60;51.50;;;;;;5036249;28;20032;-76
2022/06/12 10:29:00;;;;;;;9.82;2.47;;;24.50;54.50;;;;;;5040699;28;20033;-78
2022/06/12 10:31:26;;;;;;;9.85;2.58;;;24.40;52.30;;;;;;5038693;28;20141;-77
2022/06/12 10:34:14;;;;;;;15.40;3.95;;;24.20;54.20;;;;;;5038986;28;20412;-76
2022/06/12 10:36:40;;;;;;;13.15;3.10;;;24.20;54.00;;;;;;5039739;28;20049;-76
2022/06/12 10:39:10;;;;;;;8.63;2.35;;;24.20;53.00;;;;;;5037893;28;20102;-78
2022/06/12 10:41:48;;;;;;;9.77;2.92;;;24.20;55.40;;;;;;5037011;28;20033;-77
2022/06/12 10:44:39;;;;;;;11.68;3.10;;;24.20;53.90;;;;;;5036798;28;20040;-80
2022/06/12 10:47:20;;;;;;;12.13;3.05;;;24.20;55.80;;;;;;5036013;28;20146;-77
2022/06/12 10:49:49;;;;;;;11.63;2.83;;;24.10;53.80;;;;;;5038992;28;20024;-78
2022/06/12 10:52:22;;;;;;;11.57;3.58;;;24.10;54.40;;;;;;5035341;28;20033;-80
2022/06/12 10:54:50;;;;;;;8.07;2.40;;;24.00;53.90;;;;;;5033627;28;20112;-77
2022/06/12 10:57:31;;;;;;;11.40;2.95;;;23.80;54.80;;;;;;5035244;28;20064;-79
2022/06/12 11:00:04;;;;;;;10.60;3.00;;;23.70;54.80;;;;;;5035639;28;20118;-76
2022/06/12 11:03:09;;;;;;;13.48;3.40;;;23.60;55.20;;;;;;5038804;28;20608;-77
2022/06/12 11:06:02;;;;;;;12.95;3.00;;;23.40;55.30;;;;;;5017211;28;20037;-78
2022/06/12 11:08:49;;;;;;;8.63;3.00;;;23.20;56.00;;;;;;5039000;28;20048;-79
2022/06/12 11:11:32;;;;;;;19.23;4.28;;;23.10;55.80;;;;;;5038373;28;20037;-81
2022/06/12 11:14:14;;;;;;;10.98;2.92;;;23.20;55.60;;;;;;5037117;28;20039;-77
2022/06/12 11:17:00;;;;;;;13.10;4.22;;;23.10;55.10;;;;;;5037101;28;20063;-77
2022/06/12 11:19:56;;;;;;;13.75;2.92;;;23.00;55.40;;;;;;5038400;28;20049;-78
2022/06/12 11:22:51;;;;;;;10.35;2.90;;;22.90;56.30;;;;;;5036676;28;20117;-78
2022/06/12 11:25:52;;;;;;;9.63;2.50;;;22.90;56.60;;;;;;5034141;28;20029;-77
2022/06/12 11:28:20;;;;;;;15.13;3.00;;;22.80;56.10;;;;;;5035876;28;20078;-77
2022/06/12 11:30:56;;;;;;;8.57;2.85;;;22.60;56.80;;;;;;5037587;28;20029;-77
2022/06/12 11:34:01;;;;;;;8.93;2.33;;;22.50;56.70;;;;;;5035433;28;20096;-76
2022/06/12 11:36:53;;;;;;;10.77;2.42;;;22.60;55.90;;;;;;5038267;28;20546;-77
2022/06/12 11:39:41;;;;;;;6.72;1.83;;;22.70;55.30;;;;;;5036189;28;20065;-75
2022/06/12 11:42:28;;;;;;;10.63;3.10;;;23.00;56.10;;;;;;5035396;28;20048;-76
2022/06/12 11:45:20;;;;;;;10.90;2.17;;;23.20;51.60;;;;;;5036067;28;20044;-77
2022/06/12 11:48:16;;;;;;;10.18;2.30;;;23.50;51.80;;;;;;5039597;28;20052;-77
2022/06/12 11:50:48;;;;;;;10.35;2.00;;;23.80;51.50;;;;;;5031857;28;20070;-76
2022/06/12 11:53:31;;;;;;;7.03;2.17;;;24.00;50.50;;;;;;5036619;28;20028;-76
2022/06/12 11:56:00;;;;;;;8.30;2.20;;;24.20;50.00;;;;;;5036438;28;20025;-76
2022/06/12 11:58:40;;;;;;;11.52;2.55;;;24.30;49.80;;;;;;5044333;28;20021;-78
2022/06/12 12:01:42;;;;;;;6.80;2.10;;;24.40;49.40;;;;;;5042135;28;20105;-76
2022/06/12 12:04:14;;;;;;;10.85;2.00;;;24.50;49.60;;;;;;5047609;28;20099;-76
2022/06/12 12:06:46;;;;;;;6.82;1.90;;;24.60;49.60;;;;;;5044282;28;20053;-76
2022/06/12 12:09:14;;;;;;;10.60;2.08;;;24.90;48.40;;;;;;5047041;28;20032;-75
2022/06/12 12:12:03;;;;;;;7.95;2.30;;;25.00;46.50;;;;;;5039358;28;20030;-77
2022/06/12 12:14:33;;;;;;;6.03;1.58;;;25.00;46.90;;;;;;5034603;28;20499;-74
2022/06/12 12:17:24;;;;;;;5.78;1.92;;;25.20;47.90;;;;;;5039520;28;20128;-77
2022/06/12 12:19:54;;;;;;;9.73;2.50;;;25.30;47.70;;;;;;5033505;28;20036;-76
2022/06/12 12:22:38;;;;;;;10.82;3.08;;;25.30;46.70;;;;;;5050050;28;20017;-76
2022/06/12 12:25:22;;;;;;;6.82;2.35;;;25.40;46.70;;;;;;5046375;28;20021;-74
2022/06/12 12:27:52;;;;;;;7.53;1.67;;;25.40;47.00;;;;;;5039947;28;20034;-75
2022/06/12 12:30:26;;;;;;;6.13;2.00;;;25.50;46.90;;;;;;5038738;28;20033;-78
2022/06/12 12:32:56;;;;;;;9.07;2.00;;;25.40;46.90;;;;;;5039818;28;20029;-75
2022/06/12 12:41:16;;;;;;;6.90;2.15;;;25.40;45.60;;;;;;5040217;28;20158;-76
2022/06/12 12:43:49;;;;;;;7.45;1.58;;;25.30;47.70;;;;;;5042830;28;20021;-77
2022/06/12 12:46:16;;;;;;;6.53;1.40;;;25.40;44.40;;;;;;5039535;28;20332;-76
2022/06/12 12:48:47;;;;;;;6.35;1.63;;;25.50;45.50;;;;;;5041075;28;20364;-76
2022/06/12 12:51:29;;;;;;;7.70;1.98;;;25.60;44.30;;;;;;5038260;28;20028;-75
2022/06/12 12:54:11;;;;;;;5.45;1.40;;;25.70;43.20;;;;;;5036637;28;20084;-76
2022/06/12 12:56:49;;;;;;;4.90;1.25;;;25.50;44.20;;;;;;5038777;28;20052;-74
2022/06/12 12:59:15;;;;;;;5.45;1.85;;;25.50;41.80;;;;;;5041573;28;20033;-75
2022/06/12 13:01:46;;;;;;;4.13;1.48;;;25.50;42.70;;;;;;5040696;28;20032;-74
2022/06/12 13:04:19;;;;;;;6.85;1.55;;;25.50;41.70;;;;;;5040595;28;20036;-75
2022/06/12 13:07:03;;;;;;;6.40;1.60;;;25.50;42.10;;;;;;5036402;28;20116;-77
2022/06/12 13:09:50;;;;;;;6.00;1.38;;;25.40;41.90;;;;;;5043324;28;20029;-76
2022/06/12 13:12:40;;;;;;;3.78;1.35;;;25.30;42.40;;;;;;5043564;28;20027;-74
2022/06/12 13:15:31;;;;;;;5.18;1.02;;;25.20;39.10;;;;;;5045973;28;20044;-76
2022/06/12 13:18:12;;;;;;;3.60;1.25;;;25.10;40.70;;;;;;5044657;28;20029;-76
2022/06/12 13:20:56;;;;;;;3.72;1.20;;;25.30;42.50;;;;;;5051021;28;20472;-77
2022/06/12 13:23:55;;;;;;;4.25;1.10;;;25.50;41.80;;;;;;5050383;28;20025;-76
2022/06/12 13:26:23;;;;;;;6.05;1.77;;;25.60;40.30;;;;;;5055405;28;20013;-72
2022/06/12 13:29:14;;;;;;;4.07;0.93;;;25.60;39.40;;;;;;5056290;28;20360;-74
2022/06/12 13:31:39;;;;;;;3.72;1.20;;;25.40;41.80;;;;;;5054807;28;20033;-76
2022/06/12 13:34:05;;;;;;;5.15;1.27;;;25.40;42.60;;;;;;5055936;28;20082;-75
2022/06/12 13:36:40;;;;;;;3.92;0.80;;;25.60;41.40;;;;;;5050167;28;20037;-75